sensor_id;sensor_type;location;lat;lon;timestamp;temperature;humidity
2327;DHT22;1174;51.588;7.328;2023-03-14T00:00:50;12.60;99.90
2327;DHT22;1174;51.588;7.328;2023-03-14T00:03:18;12.50;99.90
2327;DHT22;1174;51.588;7.328;2023-03-14T00:05:45;12.50;99.90
2327;DHT22;1174;51.588;7.328;2023-03-14T00:08:13;12.50;99.90
2327;DHT22;1174;51.588;7.328;2023-03-14T00:10:40;12.50;99.90
2327;DHT22;1174;51.588;7.328;2023-03-14T00:13:08;12.40;99.90
2327;DHT22;1174;51.588;7.328;2023-03-14T00:15:35;12.40;99.90
2327;DHT22;1174;51.588;7.328;2023-03-14T00:18:02;12.40;99.90
2327;DHT22;1174;51.588;7.328;2023-03-14T00:20:29;12.30;99.90
2327;DHT22;1174;51.588;7.328;2023-03-14T00:22:56;12.40;99.90
2327;DHT22;1174;51.588;7.328;2023-03-14T00:25:24;12.30;99.90
2327;DHT22;1174;51.588;7.328;2023-03-14T00:27:52;12.40;99.90
2327;DHT22;1174;51.588;7.328;2023-03-14T00:30:19;12.30;99.90
2327;DHT22;1174;51.588;7.328;2023-03-14T00:32:46;12.30;99.90
2327;DHT22;1174;51.588;7.328;2023-03-14T00:35:13;12.30;99.90
2327;DHT22;1174;51.588;7.328;2023-03-14T00:37:40;12.20;99.90
2327;DHT22;1174;51.588;7.328;2023-03-14T00:40:08;12.30;99.90
2327;DHT22;1174;51.588;7.328;2023-03-14T00:42:37;12.30;99.90
2327;DHT22;1174;51.588;7.328;2023-03-14T00:45:04;12.20;99.90
2327;DHT22;1174;51.588;7.328;2023-03-14T00:47:33;12.20;99.90
2327;DHT22;1174;51.588;7.328;2023-03-14T00:50:00;12.20;99.90
2327;DHT22;1174;51.588;7.328;2023-03-14T00:52:27;12.30;99.90
2327;DHT22;1174;51.588;7.328;2023-03-14T00:54:53;12.40;99.90
2327;DHT22;1174;51.588;7.328;2023-03-14T00:57:20;12.40;99.90
2327;DHT22;1174;51.588;7.328;2023-03-14T00:59:50;12.40;99.90
2327;DHT22;1174;51.588;7.328;2023-03-14T01:02:18;12.50;99.90
2327;DHT22;1174;51.588;7.328;2023-03-14T01:04:47;12.50;99.90
2327;DHT22;1174;51.588;7.328;2023-03-14T01:07:15;12.40;99.90
2327;DHT22;1174;51.588;7.328;2023-03-14T01:09:42;12.20;99.90
2327;DHT22;1174;51.588;7.328;2023-03-14T01:12:09;11.80;99.90
2327;DHT22;1174;51.588;7.328;2023-03-14T01:14:35;11.60;99.90
2327;DHT22;1174;51.588;7.328;2023-03-14T01:17:04;11.30;99.90
2327;DHT22;1174;51.588;7.328;2023-03-14T01:19:31;11.10;99.90
2327;DHT22;1174;51.588;7.328;2023-03-14T01:21:58;10.90;99.90
2327;DHT22;1174;51.588;7.328;2023-03-14T01:24:25;10.70;99.90
2327;DHT22;1174;51.588;7.328;2023-03-14T01:26:52;10.60;99.90
2327;DHT22;1174;51.588;7.328;2023-03-14T01:29:18;10.50;99.90
2327;DHT22;1174;51.588;7.328;2023-03-14T01:31:45;10.40;99.90
2327;DHT22;1174;51.588;7.328;2023-03-14T01:34:14;10.40;99.90
2327;DHT22;1174;51.588;7.328;2023-03-14T01:36:40;10.30;99.90
2327;DHT22;1174;51.588;7.328;2023-03-14T01:39:07;10.20;99.90
2327;DHT22;1174;51.588;7.328;2023-03-14T01:41:35;10.10;99.90
2327;DHT22;1174;51.588;7.328;2023-03-14T01:44:03;10.10;99.90
2327;DHT22;1174;51.588;7.328;2023-03-14T01:46:36;10.10;99.90
2327;DHT22;1174;51.588;7.328;2023-03-14T01:49:16;10.10;99.90
2327;DHT22;1174;51.588;7.328;2023-03-14T01:51:49;10.10;99.90
2327;DHT22;1174;51.588;7.328;2023-03-14T01:54:20;10.10;99.90
2327;DHT22;1174;51.588;7.328;2023-03-14T01:56:55;10.10;99.90
2327;DHT22;1174;51.588;7.328;2023-03-14T01:59:25;10.10;99.90
2327;DHT22;1174;51.588;7.328;2023-03-14T02:01:54;10.20;99.90
2327;DHT22;1174;51.588;7.328;2023-03-14T02:04:24;10.20;99.90
2327;DHT22;1174;51.588;7.328;2023-03-14T02:06:58;10.20;99.90
2327;DHT22;1174;51.588;7.328;2023-03-14T02:09:26;10.20;99.90
2327;DHT22;1174;51.588;7.328;2023-03-14T02:11:53;10.20;99.90
2327;DHT22;1174;51.588;7.328;2023-03-14T02:14:27;10.20;99.90
2327;DHT22;1174;51.588;7.328;2023-03-14T02:16:55;10.20;99.90
2327;DHT22;1174;51.588;7.328;2023-03-14T02:19:32;10.20;99.90
2327;DHT22;1174;51.588;7.328;2023-03-14T02:22:06;10.30;99.90
2327;DHT22;1174;51.588;7.328;2023-03-14T02:24:40;10.20;99.90
2327;DHT22;1174;51.588;7.328;2023-03-14T02:27:11;10.20;99.90
2327;DHT22;1174;51.588;7.328;2023-03-14T02:29:45;10.20;99.90
2327;DHT22;1174;51.588;7.328;2023-03-14T02:32:13;10.30;99.90
2327;DHT22;1174;51.588;7.328;2023-03-14T02:34:43;10.30;99.90
2327;DHT22;1174;51.588;7.328;2023-03-14T02:37:16;10.30;99.90
2327;DHT22;1174;51.588;7.328;2023-03-14T02:39:45;10.30;99.90
2327;DHT22;1174;51.588;7.328;2023-03-14T02:42:16;10.30;99.90
2327;DHT22;1174;51.588;7.328;2023-03-14T02:44:52;10.30;99.90
2327;DHT22;1174;51.588;7.328;2023-03-14T02:47:24;10.30;99.90
2327;DHT22;1174;51.588;7.328;2023-03-14T02:50:00;10.40;99.90
2327;DHT22;1174;51.588;7.328;2023-03-14T02:52:28;10.40;99.90
2327;DHT22;1174;51.588;7.328;2023-03-14T02:54:55;10.50;99.90
2327;DHT22;1174;51.588;7.328;2023-03-14T02:57:24;10.50;99.90
2327;DHT22;1174;51.588;7.328;2023-03-14T02:59:51;10.50;99.90
2327;DHT22;1174;51.588;7.328;2023-03-14T03:02:18;10.50;99.90
2327;DHT22;1174;51.588;7.328;2023-03-14T03:04:47;10.50;99.90
2327;DHT22;1174;51.588;7.328;2023-03-14T03:07:14;10.60;99.90
2327;DHT22;1174;51.588;7.328;2023-03-14T03:09:41;10.70;99.90
2327;DHT22;1174;51.588;7.328;2023-03-14T03:12:08;10.70;99.90
2327;DHT22;1174;51.588;7.328;2023-03-14T03:14:39;10.70;99.90
2327;DHT22;1174;51.588;7.328;2023-03-14T03:17:06;10.60;99.90
2327;DHT22;1174;51.588;7.328;2023-03-14T03:19:33;10.60;99.90
2327;DHT22;1174;51.588;7.328;2023-03-14T03:22:01;10.50;99.90
2327;DHT22;1174;51.588;7.328;2023-03-14T03:24:28;10.50;99.90
2327;DHT22;1174;51.588;7.328;2023-03-14T03:26:55;10.50;99.90
2327;DHT22;1174;51.588;7.328;2023-03-14T03:29:22;10.40;99.90
2327;DHT22;1174;51.588;7.328;2023-03-14T03:31:50;10.40;99.90
2327;DHT22;1174;51.588;7.328;2023-03-14T03:34:17;10.40;99.90
2327;DHT22;1174;51.588;7.328;2023-03-14T03:36:44;10.40;99.90
2327;DHT22;1174;51.588;7.328;2023-03-14T03:39:11;10.40;99.90
2327;DHT22;1174;51.588;7.328;2023-03-14T03:41:37;10.40;99.90
2327;DHT22;1174;51.588;7.328;2023-03-14T03:44:04;10.40;99.90
2327;DHT22;1174;51.588;7.328;2023-03-14T03:46:32;10.40;99.90
2327;DHT22;1174;51.588;7.328;2023-03-14T03:49:00;10.40;99.90
2327;DHT22;1174;51.588;7.328;2023-03-14T03:51:27;10.50;99.90
2327;DHT22;1174;51.588;7.328;2023-03-14T03:53:56;10.60;99.90
2327;DHT22;1174;51.588;7.328;2023-03-14T03:56:23;10.60;99.90
2327;DHT22;1174;51.588;7.328;2023-03-14T03:58:51;10.60;99.90
2327;DHT22;1174;51.588;7.328;2023-03-14T04:01:20;10.60;99.90
2327;DHT22;1174;51.588;7.328;2023-03-14T04:03:47;10.50;99.90
2327;DHT22;1174;51.588;7.328;2023-03-14T04:06:15;10.50;99.90
2327;DHT22;1174;51.588;7.328;2023-03-14T04:08:43;10.60;99.90
2327;DHT22;1174;51.588;7.328;2023-03-14T04:11:10;10.60;99.90
2327;DHT22;1174;51.588;7.328;2023-03-14T04:13:38;10.70;99.90
2327;DHT22;1174;51.588;7.328;2023-03-14T04:16:11;10.70;99.90
2327;DHT22;1174;51.588;7.328;2023-03-14T04:18:41;10.70;99.90
2327;DHT22;1174;51.588;7.328;2023-03-14T04:21:08;10.70;99.90
2327;DHT22;1174;51.588;7.328;2023-03-14T04:23:36;10.60;99.90
2327;DHT22;1174;51.588;7.328;2023-03-14T04:26:03;10.50;99.90
2327;DHT22;1174;51.588;7.328;2023-03-14T04:28:30;10.60;99.90
2327;DHT22;1174;51.588;7.328;2023-03-14T04:30:57;10.50;99.90
2327;DHT22;1174;51.588;7.328;2023-03-14T04:33:24;10.50;99.90
2327;DHT22;1174;51.588;7.328;2023-03-14T04:35:54;10.50;99.90
2327;DHT22;1174;51.588;7.328;2023-03-14T04:38:20;10.50;99.90
2327;DHT22;1174;51.588;7.328;2023-03-14T04:40:49;10.50;99.90
2327;DHT22;1174;51.588;7.328;2023-03-14T04:43:16;10.50;99.90
2327;DHT22;1174;51.588;7.328;2023-03-14T04:45:44;10.40;99.90
2327;DHT22;1174;51.588;7.328;2023-03-14T04:48:10;10.40;99.90
2327;DHT22;1174;51.588;7.328;2023-03-14T04:50:38;10.30;99.90
2327;DHT22;1174;51.588;7.328;2023-03-14T04:53:05;10.30;99.90
2327;DHT22;1174;51.588;7.328;2023-03-14T04:55:33;10.10;99.90
2327;DHT22;1174;51.588;7.328;2023-03-14T04:58:02;9.90;99.90
2327;DHT22;1174;51.588;7.328;2023-03-14T05:00:30;9.90;99.90
2327;DHT22;1174;51.588;7.328;2023-03-14T05:02:59;9.90;99.90
2327;DHT22;1174;51.588;7.328;2023-03-14T05:05:26;9.90;99.90
2327;DHT22;1174;51.588;7.328;2023-03-14T05:07:53;9.80;99.90
2327;DHT22;1174;51.588;7.328;2023-03-14T05:10:20;9.80;99.90
2327;DHT22;1174;51.588;7.328;2023-03-14T05:12:47;9.70;99.90
2327;DHT22;1174;51.588;7.328;2023-03-14T05:15:16;9.60;99.90
2327;DHT22;1174;51.588;7.328;2023-03-14T05:17:42;9.70;99.90
2327;DHT22;1174;51.588;7.328;2023-03-14T05:20:10;9.60;99.90
2327;DHT22;1174;51.588;7.328;2023-03-14T05:22:38;9.50;99.90
2327;DHT22;1174;51.588;7.328;2023-03-14T05:25:06;9.50;99.90
2327;DHT22;1174;51.588;7.328;2023-03-14T05:27:33;9.50;99.90
2327;DHT22;1174;51.588;7.328;2023-03-14T05:30:01;9.40;99.90
2327;DHT22;1174;51.588;7.328;2023-03-14T05:32:32;9.40;99.90
2327;DHT22;1174;51.588;7.328;2023-03-14T05:34:59;9.40;99.90
2327;DHT22;1174;51.588;7.328;2023-03-14T05:37:27;9.40;99.90
2327;DHT22;1174;51.588;7.328;2023-03-14T05:39:54;9.40;99.90
2327;DHT22;1174;51.588;7.328;2023-03-14T05:42:21;9.40;99.90
2327;DHT22;1174;51.588;7.328;2023-03-14T05:44:48;9.40;99.90
2327;DHT22;1174;51.588;7.328;2023-03-14T05:47:15;9.40;99.90
2327;DHT22;1174;51.588;7.328;2023-03-14T05:49:43;9.40;99.90
2327;DHT22;1174;51.588;7.328;2023-03-14T05:52:10;9.50;99.90
2327;DHT22;1174;51.588;7.328;2023-03-14T05:54:37;9.40;99.90
2327;DHT22;1174;51.588;7.328;2023-03-14T05:57:07;9.50;99.90
2327;DHT22;1174;51.588;7.328;2023-03-14T05:59:34;9.60;99.90
2327;DHT22;1174;51.588;7.328;2023-03-14T06:02:01;9.50;99.90
2327;DHT22;1174;51.588;7.328;2023-03-14T06:04:28;9.50;99.90
2327;DHT22;1174;51.588;7.328;2023-03-14T06:06:56;9.50;99.90
2327;DHT22;1174;51.588;7.328;2023-03-14T06:09:23;9.60;99.90
2327;DHT22;1174;51.588;7.328;2023-03-14T06:11:53;9.70;99.90
2327;DHT22;1174;51.588;7.328;2023-03-14T06:14:20;9.60;99.90
2327;DHT22;1174;51.588;7.328;2023-03-14T06:16:47;9.70;99.90
2327;DHT22;1174;51.588;7.328;2023-03-14T06:19:14;9.70;99.90
2327;DHT22;1174;51.588;7.328;2023-03-14T06:21:42;9.70;99.90
2327;DHT22;1174;51.588;7.328;2023-03-14T06:24:10;9.70;99.90
2327;DHT22;1174;51.588;7.328;2023-03-14T06:26:37;9.60;99.90
2327;DHT22;1174;51.588;7.328;2023-03-14T06:29:04;9.80;99.90
2327;DHT22;1174;51.588;7.328;2023-03-14T06:31:34;9.90;99.90
2327;DHT22;1174;51.588;7.328;2023-03-14T06:34:01;9.80;99.90
2327;DHT22;1174;51.588;7.328;2023-03-14T06:36:28;9.90;99.90
2327;DHT22;1174;51.588;7.328;2023-03-14T06:38:58;9.90;99.90
2327;DHT22;1174;51.588;7.328;2023-03-14T06:41:27;10.00;99.90
2327;DHT22;1174;51.588;7.328;2023-03-14T06:43:55;9.90;99.90
2327;DHT22;1174;51.588;7.328;2023-03-14T06:46:22;9.90;99.90
2327;DHT22;1174;51.588;7.328;2023-03-14T06:48:48;10.10;99.90
2327;DHT22;1174;51.588;7.328;2023-03-14T06:51:15;10.00;99.90
2327;DHT22;1174;51.588;7.328;2023-03-14T06:53:42;10.10;99.90
2327;DHT22;1174;51.588;7.328;2023-03-14T06:56:09;10.20;99.90
2327;DHT22;1174;51.588;7.328;2023-03-14T06:58:38;10.20;99.90
2327;DHT22;1174;51.588;7.328;2023-03-14T07:01:06;10.20;99.90
2327;DHT22;1174;51.588;7.328;2023-03-14T07:03:33;10.20;99.90
2327;DHT22;1174;51.588;7.328;2023-03-14T07:06:00;10.30;99.90
2327;DHT22;1174;51.588;7.328;2023-03-14T07:08:28;10.40;99.90
2327;DHT22;1174;51.588;7.328;2023-03-14T07:10:56;10.30;99.90
2327;DHT22;1174;51.588;7.328;2023-03-14T07:13:23;10.40;99.90
2327;DHT22;1174;51.588;7.328;2023-03-14T07:15:51;10.50;99.90
2327;DHT22;1174;51.588;7.328;2023-03-14T07:18:18;10.50;99.90
2327;DHT22;1174;51.588;7.328;2023-03-14T07:20:46;10.60;99.90
2327;DHT22;1174;51.588;7.328;2023-03-14T07:23:13;10.60;99.90
2327;DHT22;1174;51.588;7.328;2023-03-14T07:25:40;10.60;99.90
2327;DHT22;1174;51.588;7.328;2023-03-14T07:28:07;10.70;99.90
2327;DHT22;1174;51.588;7.328;2023-03-14T07:30:34;10.80;99.90
2327;DHT22;1174;51.588;7.328;2023-03-14T07:33:05;10.70;99.90
2327;DHT22;1174;51.588;7.328;2023-03-14T07:35:32;10.70;99.90
2327;DHT22;1174;51.588;7.328;2023-03-14T07:37:59;10.70;99.90
2327;DHT22;1174;51.588;7.328;2023-03-14T07:40:26;10.60;99.90
2327;DHT22;1174;51.588;7.328;2023-03-14T07:42:53;10.60;99.90
2327;DHT22;1174;51.588;7.328;2023-03-14T07:45:21;10.70;99.90
2327;DHT22;1174;51.588;7.328;2023-03-14T07:47:47;10.70;99.90
2327;DHT22;1174;51.588;7.328;2023-03-14T07:50:16;10.90;99.90
2327;DHT22;1174;51.588;7.328;2023-03-14T07:52:43;11.00;99.90
2327;DHT22;1174;51.588;7.328;2023-03-14T07:55:10;11.20;99.90
2327;DHT22;1174;51.588;7.328;2023-03-14T07:57:39;11.50;99.90
2327;DHT22;1174;51.588;7.328;2023-03-14T08:00:08;11.60;99.90
2327;DHT22;1174;51.588;7.328;2023-03-14T08:02:36;11.50;99.90
2327;DHT22;1174;51.588;7.328;2023-03-14T08:05:04;11.50;99.90
2327;DHT22;1174;51.588;7.328;2023-03-14T08:07:32;11.40;99.90
2327;DHT22;1174;51.588;7.328;2023-03-14T08:09:59;11.20;99.90
2327;DHT22;1174;51.588;7.328;2023-03-14T08:12:26;11.20;99.90
2327;DHT22;1174;51.588;7.328;2023-03-14T08:14:53;11.40;99.90
2327;DHT22;1174;51.588;7.328;2023-03-14T08:17:20;11.40;99.90
2327;DHT22;1174;51.588;7.328;2023-03-14T08:19:47;11.30;99.90
2327;DHT22;1174;51.588;7.328;2023-03-14T08:22:14;11.30;99.90
2327;DHT22;1174;51.588;7.328;2023-03-14T08:24:43;11.30;99.90
2327;DHT22;1174;51.588;7.328;2023-03-14T08:27:10;11.20;99.90
2327;DHT22;1174;51.588;7.328;2023-03-14T08:29:37;11.10;99.90
2327;DHT22;1174;51.588;7.328;2023-03-14T08:32:06;11.20;99.90
2327;DHT22;1174;51.588;7.328;2023-03-14T08:34:33;11.10;99.90
2327;DHT22;1174;51.588;7.328;2023-03-14T08:37:00;11.10;99.90
2327;DHT22;1174;51.588;7.328;2023-03-14T08:39:27;11.10;99.90
2327;DHT22;1174;51.588;7.328;2023-03-14T08:41:55;11.10;99.90
2327;DHT22;1174;51.588;7.328;2023-03-14T08:44:22;11.00;99.90
2327;DHT22;1174;51.588;7.328;2023-03-14T08:46:49;11.00;99.90
2327;DHT22;1174;51.588;7.328;2023-03-14T08:49:16;11.00;99.90
2327;DHT22;1174;51.588;7.328;2023-03-14T08:51:43;11.00;99.90
2327;DHT22;1174;51.588;7.328;2023-03-14T08:54:10;11.10;99.90
2327;DHT22;1174;51.588;7.328;2023-03-14T08:56:38;11.30;99.90
2327;DHT22;1174;51.588;7.328;2023-03-14T08:59:06;11.40;99.90
2327;DHT22;1174;51.588;7.328;2023-03-14T09:01:35;11.70;99.90
2327;DHT22;1174;51.588;7.328;2023-03-14T09:04:02;11.90;99.90
2327;DHT22;1174;51.588;7.328;2023-03-14T09:06:29;12.00;99.90
2327;DHT22;1174;51.588;7.328;2023-03-14T09:08:57;12.20;99.90
2327;DHT22;1174;51.588;7.328;2023-03-14T09:11:23;12.30;99.90
2327;DHT22;1174;51.588;7.328;2023-03-14T09:13:50;12.30;99.90
2327;DHT22;1174;51.588;7.328;2023-03-14T09:16:19;12.40;99.90
2327;DHT22;1174;51.588;7.328;2023-03-14T09:18:46;12.20;99.90
2327;DHT22;1174;51.588;7.328;2023-03-14T09:21:13;12.20;99.90
2327;DHT22;1174;51.588;7.328;2023-03-14T09:23:40;12.00;99.90
2327;DHT22;1174;51.588;7.328;2023-03-14T09:26:07;11.80;99.90
2327;DHT22;1174;51.588;7.328;2023-03-14T09:28:34;11.70;99.90
2327;DHT22;1174;51.588;7.328;2023-03-14T09:31:06;11.60;99.90
2327;DHT22;1174;51.588;7.328;2023-03-14T09:33:36;11.60;99.90
2327;DHT22;1174;51.588;7.328;2023-03-14T09:36:05;11.40;99.90
2327;DHT22;1174;51.588;7.328;2023-03-14T09:38:33;11.20;99.90
2327;DHT22;1174;51.588;7.328;2023-03-14T09:41:01;11.20;99.90
2327;DHT22;1174;51.588;7.328;2023-03-14T09:43:31;10.50;99.90
2327;DHT22;1174;51.588;7.328;2023-03-14T09:46:01;9.60;99.90
2327;DHT22;1174;51.588;7.328;2023-03-14T09:48:32;9.10;99.90
2327;DHT22;1174;51.588;7.328;2023-03-14T09:51:03;9.10;99.90
2327;DHT22;1174;51.588;7.328;2023-03-14T09:53:37;9.20;99.90
2327;DHT22;1174;51.588;7.328;2023-03-14T09:56:11;9.30;99.90
2327;DHT22;1174;51.588;7.328;2023-03-14T09:58:41;9.30;99.90
2327;DHT22;1174;51.588;7.328;2023-03-14T10:01:11;9.40;99.90
2327;DHT22;1174;51.588;7.328;2023-03-14T10:03:42;9.40;99.90
2327;DHT22;1174;51.588;7.328;2023-03-14T10:06:13;9.50;99.90
2327;DHT22;1174;51.588;7.328;2023-03-14T10:08:40;9.60;99.90
2327;DHT22;1174;51.588;7.328;2023-03-14T10:11:14;9.70;99.90
2327;DHT22;1174;51.588;7.328;2023-03-14T10:16:32;9.40;99.90
2327;DHT22;1174;51.588;7.328;2023-03-14T10:19:05;9.40;99.90
2327;DHT22;1174;51.588;7.328;2023-03-14T10:21:38;9.30;99.90
2327;DHT22;1174;51.588;7.328;2023-03-14T10:24:20;9.10;99.90
2327;DHT22;1174;51.588;7.328;2023-03-14T10:26:53;9.00;99.90
2327;DHT22;1174;51.588;7.328;2023-03-14T10:29:20;8.90;99.90
2327;DHT22;1174;51.588;7.328;2023-03-14T10:31:53;8.80;99.90
2327;DHT22;1174;51.588;7.328;2023-03-14T10:34:24;8.90;99.90
2327;DHT22;1174;51.588;7.328;2023-03-14T10:36:56;9.00;99.90
2327;DHT22;1174;51.588;7.328;2023-03-14T10:39:38;9.10;99.90
2327;DHT22;1174;51.588;7.328;2023-03-14T10:42:16;9.20;99.90
2327;DHT22;1174;51.588;7.328;2023-03-14T10:44:44;8.90;99.90
2327;DHT22;1174;51.588;7.328;2023-03-14T10:47:17;8.90;99.90
2327;DHT22;1174;51.588;7.328;2023-03-14T10:49:45;8.90;99.90
2327;DHT22;1174;51.588;7.328;2023-03-14T10:52:19;8.80;99.90
2327;DHT22;1174;51.588;7.328;2023-03-14T10:54:49;8.80;99.90
2327;DHT22;1174;51.588;7.328;2023-03-14T10:57:19;8.70;99.90
2327;DHT22;1174;51.588;7.328;2023-03-14T10:59:46;8.70;99.90
2327;DHT22;1174;51.588;7.328;2023-03-14T11:02:34;8.60;99.90
2327;DHT22;1174;51.588;7.328;2023-03-14T11:05:15;8.40;99.90
2327;DHT22;1174;51.588;7.328;2023-03-14T11:07:47;8.20;99.90
2327;DHT22;1174;51.588;7.328;2023-03-14T11:10:20;8.30;99.90
2327;DHT22;1174;51.588;7.328;2023-03-14T11:12:58;8.40;99.90
2327;DHT22;1174;51.588;7.328;2023-03-14T11:15:32;8.00;99.90
2327;DHT22;1174;51.588;7.328;2023-03-14T11:18:17;7.90;99.90
2327;DHT22;1174;51.588;7.328;2023-03-14T11:20:51;8.00;99.90
2327;DHT22;1174;51.588;7.328;2023-03-14T11:23:22;7.90;99.90
2327;DHT22;1174;51.588;7.328;2023-03-14T11:25:56;8.20;99.90
2327;DHT22;1174;51.588;7.328;2023-03-14T11:28:30;8.30;99.90
2327;DHT22;1174;51.588;7.328;2023-03-14T11:31:05;8.40;99.90
2327;DHT22;1174;51.588;7.328;2023-03-14T11:33:37;8.20;99.90
2327;DHT22;1174;51.588;7.328;2023-03-14T11:36:07;8.30;99.90
2327;DHT22;1174;51.588;7.328;2023-03-14T11:38:38;8.30;99.90
2327;DHT22;1174;51.588;7.328;2023-03-14T11:41:14;8.20;99.90
2327;DHT22;1174;51.588;7.328;2023-03-14T11:43:42;8.10;99.90
2327;DHT22;1174;51.588;7.328;2023-03-14T11:46:17;8.10;99.90
2327;DHT22;1174;51.588;7.328;2023-03-14T11:48:56;8.00;99.90
2327;DHT22;1174;51.588;7.328;2023-03-14T11:51:28;8.00;99.90
2327;DHT22;1174;51.588;7.328;2023-03-14T11:54:02;7.80;99.90
2327;DHT22;1174;51.588;7.328;2023-03-14T11:56:35;8.00;99.90
2327;DHT22;1174;51.588;7.328;2023-03-14T11:59:07;8.20;99.90
2327;DHT22;1174;51.588;7.328;2023-03-14T12:01:45;8.20;99.90
2327;DHT22;1174;51.588;7.328;2023-03-14T12:04:23;8.10;99.90
2327;DHT22;1174;51.588;7.328;2023-03-14T12:06:56;7.90;99.90
2327;DHT22;1174;51.588;7.328;2023-03-14T12:09:30;7.70;99.90
2327;DHT22;1174;51.588;7.328;2023-03-14T12:12:01;7.70;99.90
2327;DHT22;1174;51.588;7.328;2023-03-14T12:14:32;7.80;99.90
2327;DHT22;1174;51.588;7.328;2023-03-14T12:17:04;7.80;99.90
2327;DHT22;1174;51.588;7.328;2023-03-14T12:19:34;8.10;99.90
2327;DHT22;1174;51.588;7.328;2023-03-14T12:25:02;8.50;99.90
2327;DHT22;1174;51.588;7.328;2023-03-14T12:27:49;8.70;99.90
2327;DHT22;1174;51.588;7.328;2023-03-14T12:30:30;9.00;99.90
2327;DHT22;1174;51.588;7.328;2023-03-14T12:36:03;8.80;99.90
2327;DHT22;1174;51.588;7.328;2023-03-14T12:38:53;8.90;99.90
2327;DHT22;1174;51.588;7.328;2023-03-14T12:41:27;8.70;99.90
2327;DHT22;1174;51.588;7.328;2023-03-14T12:43:56;8.70;99.90
2327;DHT22;1174;51.588;7.328;2023-03-14T12:46:24;8.90;99.90
2327;DHT22;1174;51.588;7.328;2023-03-14T12:48:56;8.90;99.90
2327;DHT22;1174;51.588;7.328;2023-03-14T12:51:34;8.90;99.90
2327;DHT22;1174;51.588;7.328;2023-03-14T12:54:28;8.90;99.90
2327;DHT22;1174;51.588;7.328;2023-03-14T12:57:22;8.60;99.90
2327;DHT22;1174;51.588;7.328;2023-03-14T12:59:55;8.30;99.90
2327;DHT22;1174;51.588;7.328;2023-03-14T13:02:27;8.00;99.90
2327;DHT22;1174;51.588;7.328;2023-03-14T13:05:02;8.00;99.90
2327;DHT22;1174;51.588;7.328;2023-03-14T13:07:36;7.80;99.90
2327;DHT22;1174;51.588;7.328;2023-03-14T13:10:24;7.70;99.90
2327;DHT22;1174;51.588;7.328;2023-03-14T13:12:55;7.90;99.90
2327;DHT22;1174;51.588;7.328;2023-03-14T13:15:31;8.30;99.90
2327;DHT22;1174;51.588;7.328;2023-03-14T13:18:02;8.50;99.90
2327;DHT22;1174;51.588;7.328;2023-03-14T13:20:32;8.40;99.90
2327;DHT22;1174;51.588;7.328;2023-03-14T13:23:01;8.30;99.90
2327;DHT22;1174;51.588;7.328;2023-03-14T13:25:33;8.50;99.90
2327;DHT22;1174;51.588;7.328;2023-03-14T13:28:02;8.40;99.90
2327;DHT22;1174;51.588;7.328;2023-03-14T13:30:39;8.20;99.90
2327;DHT22;1174;51.588;7.328;2023-03-14T13:33:12;8.40;99.90
2327;DHT22;1174;51.588;7.328;2023-03-14T13:35:41;8.30;99.90
2327;DHT22;1174;51.588;7.328;2023-03-14T13:38:17;8.20;99.90
2327;DHT22;1174;51.588;7.328;2023-03-14T13:40:45;8.20;99.90
2327;DHT22;1174;51.588;7.328;2023-03-14T13:43:20;8.20;99.90
2327;DHT22;1174;51.588;7.328;2023-03-14T13:45:55;8.20;99.90
2327;DHT22;1174;51.588;7.328;2023-03-14T13:48:26;8.40;99.90
2327;DHT22;1174;51.588;7.328;2023-03-14T13:50:56;8.20;99.90
2327;DHT22;1174;51.588;7.328;2023-03-14T13:53:25;8.50;99.90
2327;DHT22;1174;51.588;7.328;2023-03-14T13:55:54;9.10;99.90
2327;DHT22;1174;51.588;7.328;2023-03-14T13:58:38;9.50;99.90
2327;DHT22;1174;51.588;7.328;2023-03-14T14:01:12;9.70;99.90
2327;DHT22;1174;51.588;7.328;2023-03-14T14:03:41;10.00;99.90
2327;DHT22;1174;51.588;7.328;2023-03-14T14:06:21;10.10;99.90
2327;DHT22;1174;51.588;7.328;2023-03-14T14:08:50;10.00;99.90
2327;DHT22;1174;51.588;7.328;2023-03-14T14:11:23;9.90;99.90
2327;DHT22;1174;51.588;7.328;2023-03-14T14:13:54;9.90;99.90
2327;DHT22;1174;51.588;7.328;2023-03-14T14:16:24;9.90;99.90
2327;DHT22;1174;51.588;7.328;2023-03-14T14:18:52;10.10;99.90
2327;DHT22;1174;51.588;7.328;2023-03-14T14:21:20;10.00;99.90
2327;DHT22;1174;51.588;7.328;2023-03-14T14:23:48;10.20;99.90
2327;DHT22;1174;51.588;7.328;2023-03-14T14:26:17;9.80;99.90
2327;DHT22;1174;51.588;7.328;2023-03-14T14:28:46;9.80;99.90
2327;DHT22;1174;51.588;7.328;2023-03-14T14:31:21;9.90;99.90
2327;DHT22;1174;51.588;7.328;2023-03-14T14:33:55;10.10;99.90
2327;DHT22;1174;51.588;7.328;2023-03-14T14:36:24;9.90;99.90
2327;DHT22;1174;51.588;7.328;2023-03-14T14:38:54;9.50;99.90
2327;DHT22;1174;51.588;7.328;2023-03-14T14:41:21;9.50;99.90
2327;DHT22;1174;51.588;7.328;2023-03-14T14:43:48;10.00;99.90
2327;DHT22;1174;51.588;7.328;2023-03-14T14:46:19;10.80;99.90
2327;DHT22;1174;51.588;7.328;2023-03-14T14:48:46;10.80;99.90
2327;DHT22;1174;51.588;7.328;2023-03-14T14:51:24;11.10;99.90
2327;DHT22;1174;51.588;7.328;2023-03-14T14:54:03;11.40;99.90
2327;DHT22;1174;51.588;7.328;2023-03-14T14:56:35;11.00;99.90
2327;DHT22;1174;51.588;7.328;2023-03-14T14:59:04;11.00;99.90
2327;DHT22;1174;51.588;7.328;2023-03-14T15:01:36;10.90;99.90
2327;DHT22;1174;51.588;7.328;2023-03-14T15:04:09;10.40;99.90
2327;DHT22;1174;51.588;7.328;2023-03-14T15:06:38;10.50;99.90
2327;DHT22;1174;51.588;7.328;2023-03-14T15:09:09;10.50;99.90
2327;DHT22;1174;51.588;7.328;2023-03-14T15:11:36;10.70;99.90
2327;DHT22;1174;51.588;7.328;2023-03-14T15:14:03;11.20;99.90
2327;DHT22;1174;51.588;7.328;2023-03-14T15:16:34;11.80;99.90
2327;DHT22;1174;51.588;7.328;2023-03-14T15:19:02;12.40;99.90
2327;DHT22;1174;51.588;7.328;2023-03-14T15:21:31;12.70;99.90
2327;DHT22;1174;51.588;7.328;2023-03-14T15:23:58;12.50;99.90
2327;DHT22;1174;51.588;7.328;2023-03-14T15:26:27;12.00;99.10
2327;DHT22;1174;51.588;7.328;2023-03-14T15:28:54;11.70;99.90
2327;DHT22;1174;51.588;7.328;2023-03-14T15:31:22;11.20;98.20
2327;DHT22;1174;51.588;7.328;2023-03-14T15:33:50;10.90;98.90
2327;DHT22;1174;51.588;7.328;2023-03-14T15:36:23;10.70;97.50
2327;DHT22;1174;51.588;7.328;2023-03-14T15:38:51;10.90;97.80
2327;DHT22;1174;51.588;7.328;2023-03-14T15:41:21;11.00;97.90
2327;DHT22;1174;51.588;7.328;2023-03-14T15:43:49;10.70;97.50
2327;DHT22;1174;51.588;7.328;2023-03-14T15:46:16;10.10;97.20
2327;DHT22;1174;51.588;7.328;2023-03-14T15:48:44;9.50;98.40
2327;DHT22;1174;51.588;7.328;2023-03-14T15:51:13;9.10;98.70
2327;DHT22;1174;51.588;7.328;2023-03-14T15:53:44;8.70;99.20
2327;DHT22;1174;51.588;7.328;2023-03-14T15:56:13;8.70;99.90
2327;DHT22;1174;51.588;7.328;2023-03-14T15:58:40;8.70;99.90
2327;DHT22;1174;51.588;7.328;2023-03-14T16:01:08;8.70;99.90
2327;DHT22;1174;51.588;7.328;2023-03-14T16:03:35;8.50;99.90
2327;DHT22;1174;51.588;7.328;2023-03-14T16:06:02;8.40;99.90
2327;DHT22;1174;51.588;7.328;2023-03-14T16:08:30;8.40;99.90
2327;DHT22;1174;51.588;7.328;2023-03-14T16:10:58;8.40;99.90
2327;DHT22;1174;51.588;7.328;2023-03-14T16:13:26;8.50;99.90
2327;DHT22;1174;51.588;7.328;2023-03-14T16:15:56;8.40;99.00
2327;DHT22;1174;51.588;7.328;2023-03-14T16:18:23;8.40;98.70
2327;DHT22;1174;51.588;7.328;2023-03-14T16:20:55;8.20;98.80
2327;DHT22;1174;51.588;7.328;2023-03-14T16:23:26;8.20;98.60
2327;DHT22;1174;51.588;7.328;2023-03-14T16:25:56;8.10;97.50
2327;DHT22;1174;51.588;7.328;2023-03-14T16:28:24;8.00;97.70
2327;DHT22;1174;51.588;7.328;2023-03-14T16:30:51;7.90;98.00
2327;DHT22;1174;51.588;7.328;2023-03-14T16:33:19;7.90;97.60